createdAt,value
2024-01-17T00:02:36.015Z,5.73
2024-01-17T00:05:39.041Z,8.57
2024-01-17T00:08:42.059Z,7.93
2024-01-17T00:11:47.636Z,7.65
2024-01-17T00:14:52.264Z,7.65
2024-01-17T00:17:55.649Z,6.70
2024-01-17T00:20:58.796Z,6.63
2024-01-17T00:24:02.114Z,5.80
2024-01-17T00:27:06.289Z,5.85
2024-01-17T00:30:09.945Z,7.43
2024-01-17T00:33:13.200Z,9.40
2024-01-17T00:36:16.332Z,7.83
2024-01-17T00:39:20.070Z,6.18
2024-01-17T00:42:22.956Z,6.35
2024-01-17T00:45:25.818Z,6.15
2024-01-17T00:48:28.916Z,5.70
2024-01-17T00:51:35.943Z,6.33
2024-01-17T00:54:38.840Z,6.80
2024-01-17T00:57:41.901Z,7.05
2024-01-17T01:00:47.032Z,5.55
2024-01-17T01:03:51.616Z,6.27
2024-01-17T01:06:54.770Z,6.50
2024-01-17T01:09:58.206Z,7.28
2024-01-17T01:13:02.116Z,7.05
2024-01-17T01:16:05.492Z,8.68
2024-01-17T01:19:08.570Z,6.70
2024-01-17T01:22:11.489Z,8.03
2024-01-17T01:25:14.535Z,6.88
2024-01-17T01:28:17.561Z,6.53
2024-01-17T01:31:23.378Z,4.85
2024-01-17T01:34:26.277Z,6.47
2024-01-17T01:37:29.294Z,6.00
2024-01-17T01:40:32.156Z,6.32
2024-01-17T01:43:34.950Z,6.00
2024-01-17T01:46:38.174Z,6.18
2024-01-17T01:49:41.262Z,6.33
2024-01-17T01:52:49.586Z,6.53
2024-01-17T01:55:54.477Z,8.27
2024-01-17T01:58:59.134Z,5.93
2024-01-17T02:02:05.961Z,6.80
2024-01-17T02:05:10.442Z,6.73
2024-01-17T02:08:13.338Z,6.53
2024-01-17T02:11:16.483Z,6.72
2024-01-17T02:14:21.112Z,6.75
2024-01-17T02:17:24.123Z,4.97
2024-01-17T02:20:27.648Z,5.10
2024-01-17T02:23:30.707Z,5.50
2024-01-17T02:26:33.500Z,5.97
2024-01-17T02:29:36.591Z,5.80
2024-01-17T02:32:39.711Z,7.53
2024-01-17T02:35:43.397Z,6.77
2024-01-17T02:38:46.472Z,5.77
2024-01-17T02:41:49.413Z,6.60
2024-01-17T02:44:52.296Z,5.68
2024-01-17T02:47:55.285Z,7.15
2024-01-17T02:50:58.244Z,6.30
2024-01-17T02:54:01.348Z,8.00
2024-01-17T02:57:04.862Z,5.68
2024-01-17T03:00:09.853Z,5.22
2024-01-17T03:03:13.081Z,6.63
2024-01-17T03:06:18.079Z,6.60
2024-01-17T03:09:21.305Z,6.47
2024-01-17T03:12:25.951Z,6.13
2024-01-17T03:15:28.813Z,6.78
2024-01-17T03:18:31.880Z,6.30
2024-01-17T03:21:34.819Z,5.83
2024-01-17T03:24:38.649Z,6.57
2024-01-17T03:27:41.571Z,7.40
2024-01-17T03:30:44.766Z,6.55
2024-01-17T03:33:48.128Z,7.05
2024-01-17T03:36:51.269Z,4.73
2024-01-17T03:39:54.442Z,4.90
2024-01-17T03:42:57.386Z,6.45
2024-01-17T03:46:00.479Z,5.28
2024-01-17T03:49:04.360Z,6.25
2024-01-17T03:52:08.703Z,6.60
2024-01-17T03:55:11.762Z,6.33
2024-01-17T03:58:17.706Z,5.10
2024-01-17T04:01:20.696Z,4.75
2024-01-17T04:04:23.890Z,5.05
2024-01-17T04:07:26.901Z,12.13
2024-01-17T04:10:29.809Z,9.97
2024-01-17T04:13:32.724Z,6.43
2024-01-17T04:16:38.313Z,6.38
2024-01-17T04:19:42.511Z,6.70
2024-01-17T04:22:45.395Z,4.50
2024-01-17T04:25:48.262Z,6.00
2024-01-17T04:28:51.826Z,6.70
2024-01-17T04:31:54.770Z,6.25
2024-01-17T04:34:57.733Z,7.97
2024-01-17T04:38:00.599Z,14.57
2024-01-17T04:41:04.231Z,10.40
2024-01-17T04:44:07.130Z,9.27
2024-01-17T04:47:10.076Z,8.10
2024-01-17T04:50:13.889Z,7.40
2024-01-17T04:53:16.910Z,7.03
2024-01-17T04:56:20.026Z,6.53
2024-01-17T04:59:23.280Z,6.90
2024-01-17T05:02:26.425Z,6.45
2024-01-17T05:05:29.422Z,6.47
2024-01-17T05:08:32.317Z,7.07
2024-01-17T05:11:35.392Z,9.67
2024-01-17T05:14:38.486Z,8.23
2024-01-17T05:17:41.648Z,7.80
2024-01-17T05:20:44.979Z,8.35
2024-01-17T05:23:48.000Z,9.60
2024-01-17T05:26:50.833Z,7.67
2024-01-17T05:29:53.771Z,5.00
2024-01-17T05:32:57.067Z,7.10
2024-01-17T05:36:00.370Z,8.93
2024-01-17T05:39:04.620Z,9.17
2024-01-17T05:42:08.411Z,12.97
2024-01-17T05:45:11.839Z,10.02
2024-01-17T05:48:15.061Z,10.57
2024-01-17T05:51:18.065Z,10.25
2024-01-17T05:54:21.122Z,6.93
2024-01-17T05:57:24.215Z,5.47
2024-01-17T06:00:27.232Z,6.70
2024-01-17T06:03:30.431Z,7.25
2024-01-17T06:06:33.398Z,7.05
2024-01-17T06:09:36.444Z,4.87
2024-01-17T06:12:42.898Z,5.23
2024-01-17T06:15:46.200Z,5.03
2024-01-17T06:18:49.731Z,6.43
2024-01-17T06:21:52.753Z,4.43
2024-01-17T06:24:55.774Z,7.67
2024-01-17T06:27:58.867Z,6.60
2024-01-17T06:31:02.109Z,5.18
2024-01-17T06:34:05.515Z,5.85
2024-01-17T06:37:08.781Z,5.05
2024-01-17T06:40:12.472Z,5.60
2024-01-17T06:43:15.652Z,6.57
2024-01-17T06:46:18.636Z,6.10
2024-01-17T06:49:21.706Z,5.57
2024-01-17T06:52:24.844Z,6.15
2024-01-17T06:55:27.767Z,6.30
2024-01-17T06:58:30.938Z,6.03
2024-01-17T07:01:36.368Z,5.82
2024-01-17T07:04:44.628Z,6.72
2024-01-17T07:08:09.004Z,5.43
2024-01-17T07:11:47.041Z,7.90
2024-01-17T07:15:00.673Z,4.70
2024-01-17T07:18:04.698Z,7.13
2024-01-17T07:21:08.777Z,4.30
2024-01-17T07:24:14.032Z,6.78
2024-01-17T07:27:17.169Z,6.57
2024-01-17T07:30:25.466Z,4.47
2024-01-17T07:33:33.583Z,7.32
2024-01-17T07:36:36.771Z,6.78
2024-01-17T07:39:44.812Z,6.38
2024-01-17T07:42:48.371Z,6.13
2024-01-17T07:45:52.043Z,7.57
2024-01-17T07:48:55.609Z,4.03
2024-01-17T07:52:01.361Z,6.25
2024-01-17T07:55:08.984Z,5.65
2024-01-17T07:58:13.228Z,5.97
2024-01-17T08:01:16.661Z,5.07
2024-01-17T08:04:19.709Z,5.93
2024-01-17T08:07:26.297Z,6.05
2024-01-17T08:10:30.325Z,6.30
2024-01-17T08:13:35.345Z,6.10
2024-01-17T08:16:38.350Z,5.77
2024-01-17T08:19:41.723Z,7.22
2024-01-17T08:22:45.033Z,4.68
2024-01-17T08:25:48.400Z,7.55
2024-01-17T08:28:56.768Z,7.00
2024-01-17T08:31:59.755Z,6.23
2024-01-17T08:35:04.010Z,4.88
2024-01-17T08:38:07.236Z,5.53
2024-01-17T08:41:10.805Z,5.72
2024-01-17T08:44:15.032Z,5.53
2024-01-17T08:47:19.069Z,5.57
2024-01-17T08:50:22.098Z,6.53
2024-01-17T08:53:25.301Z,7.35
2024-01-17T08:56:28.168Z,6.57
2024-01-17T08:59:34.815Z,7.77
2024-01-17T09:02:38.208Z,7.50
2024-01-17T09:05:41.443Z,6.00
2024-01-17T09:08:44.422Z,7.38
2024-01-17T09:11:47.700Z,6.05
2024-01-17T09:14:51.495Z,5.67
2024-01-17T09:17:54.514Z,6.30
2024-01-17T09:20:57.835Z,6.82
2024-01-17T09:24:00.983Z,6.53
2024-01-17T09:27:04.923Z,6.47
2024-01-17T09:30:08.703Z,6.30
2024-01-17T09:33:11.917Z,6.23
2024-01-17T09:36:15.484Z,5.47
2024-01-17T09:39:21.710Z,7.07
2024-01-17T09:42:25.826Z,5.25
2024-01-17T09:45:31.312Z,6.73
2024-01-17T09:48:34.363Z,7.87
2024-01-17T09:51:42.466Z,8.23
2024-01-17T09:54:47.738Z,8.15
2024-01-17T09:58:05.453Z,6.25
2024-01-17T10:01:16.609Z,7.07
2024-01-17T10:04:26.016Z,6.37
2024-01-17T10:07:29.734Z,7.07
2024-01-17T10:10:33.497Z,6.72
2024-01-17T10:13:36.460Z,6.53
2024-01-17T10:16:39.494Z,7.77
2024-01-17T10:19:43.099Z,7.20
2024-01-17T10:22:47.380Z,7.55
2024-01-17T10:25:50.419Z,6.78
2024-01-17T10:28:56.182Z,7.97
2024-01-17T10:32:02.945Z,8.57
2024-01-17T10:35:08.193Z,8.70
2024-01-17T10:38:11.975Z,6.88
2024-01-17T10:41:15.826Z,7.80
2024-01-17T10:44:20.030Z,7.97
2024-01-17T10:47:24.010Z,9.40
2024-01-17T10:50:27.212Z,8.80
2024-01-17T10:53:44.225Z,9.60
2024-01-17T10:56:55.589Z,8.80
2024-01-17T11:00:05.586Z,9.32
2024-01-17T11:03:20.446Z,8.83
2024-01-17T11:06:25.334Z,9.70
2024-01-17T11:09:28.905Z,9.45
2024-01-17T11:12:43.129Z,10.05
2024-01-17T11:15:47.926Z,8.50
2024-01-17T11:18:51.875Z,9.67
2024-01-17T11:21:55.826Z,8.90
2024-01-17T11:25:17.639Z,8.85
2024-01-17T11:28:29.846Z,7.53
2024-01-17T11:31:55.673Z,8.43
2024-01-17T11:34:58.702Z,9.47
2024-01-17T11:38:03.949Z,8.73
2024-01-17T11:41:10.846Z,10.95
2024-01-17T11:44:15.935Z,9.48
2024-01-17T11:47:22.121Z,7.97
2024-01-17T11:50:25.269Z,9.63
2024-01-17T11:53:32.756Z,9.30
2024-01-17T11:56:36.426Z,8.65
2024-01-17T11:59:41.700Z,8.50
2024-01-17T12:02:46.340Z,7.97
2024-01-17T12:05:49.526Z,9.10
2024-01-17T12:08:58.128Z,8.70
2024-01-17T12:12:03.217Z,9.27
2024-01-17T12:15:07.199Z,8.95
2024-01-17T12:18:21.470Z,8.88
2024-01-17T12:21:25.038Z,8.50
2024-01-17T12:24:38.926Z,7.80
2024-01-17T12:27:56.769Z,9.15
2024-01-17T12:31:01.532Z,9.45
2024-01-17T12:34:06.722Z,8.63
2024-01-17T12:37:09.796Z,6.80
2024-01-17T12:40:12.731Z,8.57
2024-01-17T12:43:17.438Z,8.63
2024-01-17T12:46:22.002Z,7.88
2024-01-17T12:49:31.177Z,8.63
2024-01-17T12:52:37.712Z,7.87
2024-01-17T12:55:49.550Z,9.23
2024-01-17T12:58:53.728Z,9.02
2024-01-17T13:02:00.110Z,7.88
2024-01-17T13:05:10.692Z,9.00
2024-01-17T13:08:17.035Z,8.53
2024-01-17T13:11:20.333Z,9.60
2024-01-17T13:14:25.152Z,10.13
2024-01-17T13:17:28.761Z,9.40
2024-01-17T13:20:31.826Z,8.02
2024-01-17T13:23:35.454Z,8.80
2024-01-17T13:26:42.342Z,10.17
2024-01-17T13:29:48.078Z,9.35
2024-01-17T13:32:51.229Z,9.43
2024-01-17T13:35:55.911Z,9.27
2024-01-17T13:38:58.923Z,9.40
2024-01-17T13:42:06.906Z,9.70
2024-01-17T13:45:11.963Z,10.75
2024-01-17T13:48:15.078Z,8.85
2024-01-17T13:51:18.503Z,12.57
2024-01-17T13:54:21.571Z,13.70
2024-01-17T13:57:24.519Z,12.23
2024-01-17T14:00:27.650Z,12.98
2024-01-17T14:03:32.826Z,9.73
2024-01-17T14:06:36.630Z,10.10
2024-01-17T14:09:40.436Z,10.37
2024-01-17T14:12:48.674Z,9.37
2024-01-17T14:15:51.964Z,12.38
2024-01-17T14:18:54.976Z,12.60
2024-01-17T14:21:57.870Z,12.20
2024-01-17T14:25:01.091Z,14.70
2024-01-17T14:28:07.227Z,14.27
2024-01-17T14:31:10.374Z,15.05
2024-01-17T14:34:17.947Z,15.13
2024-01-17T14:37:20.943Z,13.45
2024-01-17T14:40:23.894Z,14.33
2024-01-17T14:43:27.900Z,20.60
2024-01-17T14:46:34.813Z,21.40
2024-01-17T14:49:37.706Z,17.35
2024-01-17T14:52:41.358Z,16.27
2024-01-17T14:55:44.534Z,14.47
2024-01-17T14:58:47.520Z,12.90
2024-01-17T15:01:50.765Z,13.32
2024-01-17T15:04:56.465Z,14.65
2024-01-17T15:07:59.915Z,13.88
2024-01-17T15:11:02.946Z,15.23
2024-01-17T15:14:05.861Z,15.37
2024-01-17T15:17:08.815Z,20.40
2024-01-17T15:20:12.852Z,15.00
2024-01-17T15:23:15.784Z,15.38
2024-01-17T15:26:18.768Z,14.27
2024-01-17T15:29:21.702Z,14.20
2024-01-17T15:32:24.789Z,17.42
2024-01-17T15:35:27.856Z,17.77
2024-01-17T15:38:31.588Z,20.05
2024-01-17T15:41:36.124Z,17.67
2024-01-17T15:44:41.869Z,15.40
2024-01-17T15:47:46.179Z,13.50
2024-01-17T15:50:49.321Z,14.68
2024-01-17T15:53:52.416Z,14.88
2024-01-17T15:56:55.483Z,15.07
2024-01-17T15:59:58.689Z,13.83
2024-01-17T16:03:01.781Z,16.48
2024-01-17T16:06:06.131Z,17.35
2024-01-17T16:09:12.864Z,18.88
2024-01-17T16:12:17.026Z,20.03
2024-01-17T16:15:20.237Z,17.00
2024-01-17T16:18:23.228Z,20.52
2024-01-17T16:21:26.418Z,18.20
2024-01-17T16:24:29.292Z,17.65
2024-01-17T16:27:32.294Z,16.87
2024-01-17T16:30:35.106Z,14.10
2024-01-17T16:33:38.618Z,13.57
2024-01-17T16:36:41.725Z,15.52
2024-01-17T16:39:44.608Z,12.52
2024-01-17T16:42:47.490Z,16.97
2024-01-17T16:45:50.700Z,17.73
2024-01-17T16:48:53.753Z,17.83
2024-01-17T16:51:58.658Z,19.95
2024-01-17T16:55:01.630Z,17.02
2024-01-17T16:58:04.743Z,21.70
2024-01-17T17:01:08.994Z,20.10
2024-01-17T17:04:12.041Z,20.27
2024-01-17T17:07:14.930Z,21.02
2024-01-17T17:10:17.871Z,21.27
2024-01-17T17:13:20.779Z,19.87
2024-01-17T17:16:24.138Z,17.63
2024-01-17T17:19:26.996Z,20.38
2024-01-17T17:22:37.163Z,16.33
2024-01-17T17:25:42.394Z,14.43
2024-01-17T17:28:48.561Z,14.37
2024-01-17T17:31:51.704Z,12.30
2024-01-17T17:34:54.663Z,16.25
2024-01-17T17:37:58.487Z,16.25
2024-01-17T17:41:01.501Z,15.85
2024-01-17T17:44:04.732Z,17.10
2024-01-17T17:47:07.738Z,17.33
2024-01-17T17:50:14.966Z,18.77
2024-01-17T17:53:18.834Z,20.38
2024-01-17T17:56:29.143Z,19.45
2024-01-17T17:59:32.211Z,20.63
2024-01-17T18:02:35.783Z,20.60
2024-01-17T18:05:41.579Z,21.30
2024-01-17T18:08:47.984Z,20.67
2024-01-17T18:11:51.127Z,20.88
2024-01-17T18:14:54.199Z,20.93
2024-01-17T18:17:57.173Z,16.53
2024-01-17T18:21:02.093Z,14.23
2024-01-17T18:24:05.435Z,15.25
2024-01-17T18:27:08.510Z,13.25
2024-01-17T18:30:12.109Z,13.70
2024-01-17T18:33:15.066Z,13.63
2024-01-17T18:36:18.076Z,12.63
2024-01-17T18:39:21.207Z,11.73
2024-01-17T18:42:24.467Z,14.38
2024-01-17T18:45:27.382Z,11.57
2024-01-17T18:48:30.370Z,10.37
2024-01-17T18:51:33.422Z,11.80
2024-01-17T18:54:36.462Z,12.18
2024-01-17T18:57:39.442Z,10.77
2024-01-17T19:00:42.666Z,12.10
2024-01-17T19:03:46.067Z,13.30
2024-01-17T19:06:49.393Z,16.17
2024-01-17T19:09:52.327Z,15.18
2024-01-17T19:12:55.245Z,15.82
2024-01-17T19:15:58.030Z,18.53
2024-01-17T19:19:01.836Z,16.23
2024-01-17T19:22:05.126Z,15.25
2024-01-17T19:25:11.699Z,14.23
2024-01-17T19:28:15.232Z,11.88
2024-01-17T19:31:18.227Z,11.73
2024-01-17T19:34:21.132Z,11.57
2024-01-17T19:37:24.091Z,11.35
2024-01-17T19:40:27.036Z,12.90
2024-01-17T19:43:29.953Z,14.18
2024-01-17T19:46:32.869Z,15.63
2024-01-17T19:49:37.762Z,16.37
2024-01-17T19:52:40.720Z,17.25
2024-01-17T19:55:43.577Z,23.23
2024-01-17T19:58:47.636Z,23.35
2024-01-17T20:01:50.501Z,21.57
2024-01-17T20:04:53.528Z,19.60
2024-01-17T20:07:56.737Z,21.67
2024-01-17T20:11:04.737Z,19.45
2024-01-17T20:14:07.829Z,20.50
2024-01-17T20:17:10.638Z,21.20
2024-01-17T20:20:13.605Z,17.87
2024-01-17T20:23:16.468Z,18.08
2024-01-17T20:26:21.490Z,18.92
2024-01-17T20:29:24.359Z,16.30
2024-01-17T20:32:27.287Z,13.97
2024-01-17T20:35:30.262Z,14.60
2024-01-17T20:38:33.039Z,14.00
2024-01-17T20:41:36.058Z,13.45
2024-01-17T20:44:39.012Z,15.35
2024-01-17T20:47:42.675Z,14.40
2024-01-17T20:50:45.684Z,13.63
2024-01-17T20:53:48.721Z,11.73
2024-01-17T20:56:54.277Z,12.98
2024-01-17T20:59:57.182Z,13.75
2024-01-17T21:03:00.291Z,9.23
2024-01-17T21:06:03.441Z,12.83
2024-01-17T21:09:07.323Z,10.73
2024-01-17T21:12:10.352Z,12.90
2024-01-17T21:15:13.496Z,13.18
2024-01-17T21:18:16.525Z,13.40
2024-01-17T21:21:19.475Z,13.40
2024-01-17T21:24:24.728Z,11.13
2024-01-17T21:27:30.194Z,14.07
2024-01-17T21:30:33.188Z,11.77
2024-01-17T21:33:36.398Z,12.80
2024-01-17T21:36:40.466Z,13.80
2024-01-17T21:39:43.570Z,13.45
2024-01-17T21:42:46.500Z,11.10
2024-01-17T21:45:49.448Z,10.25
2024-01-17T21:48:56.441Z,11.33
2024-01-17T21:52:02.534Z,11.07
2024-01-17T21:55:06.289Z,13.00
2024-01-17T21:58:09.387Z,13.20
2024-01-17T22:01:13.092Z,14.15
2024-01-17T22:04:16.933Z,11.37
2024-01-17T22:07:19.798Z,12.77
2024-01-17T22:10:22.751Z,12.48
2024-01-17T22:13:26.303Z,12.07
2024-01-17T22:16:29.193Z,13.02
2024-01-17T22:19:32.238Z,10.90
2024-01-17T22:22:35.162Z,11.50
2024-01-17T22:25:38.150Z,11.35
2024-01-17T22:28:41.148Z,11.23
2024-01-17T22:31:44.172Z,11.93
2024-01-17T22:34:47.203Z,10.47
2024-01-17T22:37:50.158Z,9.93
2024-01-17T22:40:52.962Z,11.32
2024-01-17T22:43:55.858Z,12.57
2024-01-17T22:46:58.716Z,10.93
2024-01-17T22:50:01.767Z,11.37
2024-01-17T22:53:05.272Z,12.30
2024-01-17T22:56:09.258Z,10.57
2024-01-17T22:59:12.172Z,10.68
2024-01-17T23:02:15.912Z,10.65
2024-01-17T23:05:20.119Z,9.73
2024-01-17T23:08:23.840Z,10.30
2024-01-17T23:11:27.077Z,10.93
2024-01-17T23:14:30.006Z,10.02
2024-01-17T23:17:33.161Z,10.90
2024-01-17T23:20:36.131Z,10.57
2024-01-17T23:23:39.019Z,10.20
2024-01-17T23:26:41.803Z,13.10
2024-01-17T23:29:44.613Z,10.45
2024-01-17T23:32:47.581Z,10.45
2024-01-17T23:35:50.417Z,12.37
2024-01-17T23:38:54.096Z,10.80
2024-01-17T23:41:57.081Z,10.57
2024-01-17T23:45:00.252Z,10.50
2024-01-17T23:48:03.479Z,10.50
2024-01-17T23:51:06.583Z,10.10
2024-01-17T23:54:09.518Z,8.87
2024-01-17T23:57:12.563Z,10.38
